Time;durP1;ratioP1;P1;durP2;ratioP2;P2;SDS_P1;SDS_P2;PMS_P1;PMS_P2;Temp;Humidity;BMP_temperature;BMP_pressure;BME280_temperature;BME280_humidity;BME280_pressure;Samples;Min_cycle;Max_cycle;Signal;HPM_P1;HPM_P2
2022/05/16 00:01:49;;;;;;;6.77;3.10;;;;;;;9.50;83.06;98858.72;4186622;28;19961;-69
2022/05/16 00:03:50;;;;;;;7.70;3.78;;;;;;;9.44;83.31;98860.19;4194443;28;20254;-68
2022/05/16 00:05:51;;;;;;;8.50;4.22;;;;;;;9.41;83.80;98860.88;4199804;28;20029;-68
2022/05/16 00:07:53;;;;;;;8.88;4.13;;;;;;;9.35;83.80;98857.63;4193021;28;20032;-68
2022/05/16 00:09:53;;;;;;;6.15;4.05;;;;;;;9.33;83.00;98851.63;4186159;28;20449;-68
2022/05/16 00:11:53;;;;;;;6.60;3.92;;;;;;;9.27;83.23;98847.56;4202729;28;20032;-68
2022/05/16 00:13:54;;;;;;;7.03;4.03;;;;;;;9.26;84.33;98849.50;4195310;28;20029;-68
2022/05/16 00:15:55;;;;;;;10.48;3.97;;;;;;;9.21;84.39;98847.03;4201417;28;20376;-68
2022/05/16 00:17:56;;;;;;;8.35;3.80;;;;;;;9.19;83.64;98854.91;4201323;28;20020;-68
2022/05/16 00:19:56;;;;;;;8.15;4.20;;;;;;;9.17;83.75;98845.34;4202076;28;20062;-69
2022/05/16 00:21:58;;;;;;;5.55;3.90;;;;;;;9.14;83.87;98840.56;4196028;28;20093;-69
2022/05/16 00:23:58;;;;;;;7.43;3.88;;;;;;;9.13;83.60;98836.22;4186529;28;20033;-68
2022/05/16 00:25:58;;;;;;;6.22;4.07;;;;;;;9.10;84.11;98839.66;4193949;28;20036;-68
2022/05/16 00:27:59;;;;;;;7.07;3.88;;;;;;;9.09;82.87;98832.56;4200713;28;20468;-68
2022/05/16 00:29:59;;;;;;;7.00;3.92;;;;;;;9.04;83.47;98828.13;4200706;28;20021;-69
2022/05/16 00:31:59;;;;;;;11.07;4.20;;;;;;;9.01;82.59;98837.91;4194012;28;20028;-70
2022/05/16 00:34:00;;;;;;;9.77;3.97;;;;;;;9.00;82.83;98830.78;4190137;28;20480;-70
2022/05/16 00:36:00;;;;;;;10.30;3.90;;;;;;;8.98;83.06;98837.84;4190442;28;20042;-70
2022/05/16 00:38:00;;;;;;;7.78;4.03;;;;;;;8.97;82.11;98837.03;4194521;28;20027;-70
2022/05/16 00:40:01;;;;;;;7.07;3.88;;;;;;;8.95;82.15;98828.31;4186342;28;20032;-70
2022/05/16 00:42:01;;;;;;;9.48;4.03;;;;;;;8.95;83.04;98833.84;4186199;28;20136;-69
2022/05/16 00:44:02;;;;;;;9.50;4.28;;;;;;;8.97;82.28;98830.72;4186508;28;20028;-70
2022/05/16 00:46:02;;;;;;;6.10;4.25;;;;;;;8.92;83.54;98829.00;4186347;28;20624;-70
2022/05/16 00:48:03;;;;;;;8.57;4.25;;;;;;;8.86;83.86;98819.44;4186502;28;20036;-71
2022/05/16 00:50:05;;;;;;;5.60;4.20;;;;;;;8.84;84.33;98827.25;4185794;28;20096;-70
2022/05/16 00:52:29;;;;;;;8.27;4.07;;;;;;;8.75;85.38;98826.63;4187291;28;20029;-70
2022/05/16 00:54:36;;;;;;;;;;;;;;;8.73;86.08;98824.25;4187256;28;20631;-70
2022/05/16 00:56:38;;;;;;;9.25;4.22;;;;;;;8.68;84.99;98813.47;4186338;28;19977;-70
2022/05/16 00:58:41;;;;;;;7.22;4.55;;;;;;;8.61;85.74;98813.31;4185873;28;20140;-70
2022/05/16 01:00:44;;;;;;;8.52;4.70;;;;;;;8.56;87.40;98812.78;4186334;28;20094;-70
2022/05/16 01:05:08;;;;;;;10.15;5.38;;;;;;;8.40;88.13;98810.00;4203851;28;20100;-70
2022/05/16 01:07:09;;;;;;;8.50;4.57;;;;;;;8.40;87.49;98802.53;4204998;28;20052;-69
2022/05/16 01:09:10;;;;;;;8.27;4.55;;;;;;;8.37;87.05;98808.78;4198088;28;20051;-70
2022/05/16 01:11:14;;;;;;;7.97;4.50;;;;;;;8.33;88.27;98807.84;4189085;28;20063;-70
2022/05/16 01:13:14;;;;;;;6.90;4.70;;;;;;;8.35;86.69;98802.00;4189140;28;20024;-70
2022/05/16 01:15:27;;;;;;;10.63;4.78;;;;;;;8.36;86.65;98812.69;4200051;28;20028;-70
2022/05/16 01:17:27;;;;;;;9.25;5.28;;;;;;;8.34;87.32;98805.88;4204466;28;20035;-70
2022/05/16 01:19:27;;;;;;;11.23;5.20;;;;;;;8.30;87.78;98800.28;4198468;28;20467;-70
2022/05/16 01:21:35;;;;;;;7.38;4.68;;;;;;;8.24;87.60;98790.69;4189012;28;20029;-70
2022/05/16 01:23:39;;;;;;;8.05;4.90;;;;;;;8.18;88.45;98797.59;4189166;28;20029;-70
2022/05/16 01:25:39;;;;;;;7.55;5.25;;;;;;;8.22;87.82;98798.50;4188443;28;20123;-70
2022/05/16 01:27:47;;;;;;;9.52;4.57;;;;;;;8.24;87.82;98795.38;4191425;28;20055;-69
2022/05/16 01:29:49;;;;;;;9.73;5.18;;;;;;;8.25;87.19;98791.47;4188432;28;20025;-70
2022/05/16 01:31:49;;;;;;;7.20;4.97;;;;;;;8.21;87.06;98776.81;4198547;28;20065;-70
2022/05/16 01:33:50;;;;;;;7.90;4.65;;;;;;;8.25;87.65;98789.50;4191265;28;20476;-70
2022/05/16 01:35:51;;;;;;;10.98;5.18;;;;;;;8.23;86.20;98783.56;4203465;28;20024;-70
2022/05/16 01:40:11;;;;;;;8.25;4.65;;;;;;;8.22;86.85;98776.47;4193173;28;20100;-70
2022/05/16 01:42:15;;;;;;;13.10;4.80;;;;;;;8.22;87.55;98776.47;4203646;28;20122;-70
2022/05/16 01:44:15;;;;;;;7.80;4.85;;;;;;;8.14;88.57;98774.66;4202717;28;20036;-70
2022/05/16 01:46:21;;;;;;;8.30;5.88;;;;;;;8.08;89.01;98782.38;4192519;28;20528;-70
2022/05/16 01:48:22;;;;;;;8.77;5.10;;;;;;;7.99;89.19;98776.25;4188494;28;20336;-70
2022/05/16 01:50:23;;;;;;;9.43;5.07;;;;;;;7.96;88.90;98778.94;4188590;28;20024;-70
2022/05/16 01:52:23;;;;;;;13.25;4.85;;;;;;;7.88;89.32;98781.47;4188595;28;20071;-70
2022/05/16 01:54:23;;;;;;;9.05;5.00;;;;;;;7.88;88.56;98783.44;4191502;28;20028;-70
2022/05/16 01:56:23;;;;;;;10.00;4.70;;;;;;;7.85;88.42;98782.16;4203817;28;20024;-70
2022/05/16 01:58:24;;;;;;;8.90;5.00;;;;;;;7.85;89.08;98775.88;4203102;28;20039;-70
2022/05/16 02:00:25;;;;;;;9.95;5.53;;;;;;;7.85;89.62;98776.66;4203414;28;20066;-69
2022/05/16 02:02:25;;;;;;;10.10;5.38;;;;;;;7.84;89.72;98771.50;4196550;28;20033;-69
2022/05/16 02:04:25;;;;;;;8.65;5.28;;;;;;;7.84;89.87;98769.56;4188219;28;20029;-69
2022/05/16 02:06:26;;;;;;;12.38;6.10;;;;;;;7.82;91.36;98762.81;4188549;28;20441;-69
2022/05/16 02:08:27;;;;;;;9.20;5.47;;;;;;;7.77;92.27;98758.34;4188100;28;20093;-69
2022/05/16 02:10:28;;;;;;;9.20;5.47;;;;;;;7.76;93.25;98765.00;4187884;28;20039;-70
2022/05/16 02:12:28;;;;;;;8.20;4.78;;;;;;;7.70;92.64;98760.13;4191981;28;20467;-69
2022/05/16 02:14:29;;;;;;;8.10;5.03;;;;;;;7.68;92.39;98762.41;4202839;28;20186;-69
2022/05/16 02:16:29;;;;;;;8.32;4.97;;;;;;;7.65;92.71;98752.91;4203272;28;20123;-69
2022/05/16 02:18:30;;;;;;;8.95;4.80;;;;;;;7.63;93.43;98746.97;4193417;28;20025;-69
2022/05/16 02:20:30;;;;;;;8.63;4.82;;;;;;;7.58;94.03;98741.69;4188244;28;20032;-69
2022/05/16 02:24:49;;;;;;;10.20;4.60;;;;;;;7.50;93.66;98739.91;4187882;28;20325;-69
2022/05/16 02:26:50;;;;;;;6.35;4.85;;;;;;;7.48;93.04;98745.75;4187821;28;20111;-69
2022/05/16 02:28:50;;;;;;;6.63;4.90;;;;;;;7.46;92.55;98739.00;4187592;28;20025;-69
2022/05/16 02:30:52;;;;;;;6.38;4.75;;;;;;;7.46;93.23;98745.31;4187896;28;20375;-69
2022/05/16 02:32:52;;;;;;;12.50;5.50;;;;;;;7.46;91.89;98739.81;4188221;28;20209;-69
2022/05/16 02:34:53;;;;;;;8.85;4.72;;;;;;;7.39;91.89;98745.13;4202386;28;20713;-69
2022/05/16 02:36:53;;;;;;;8.82;4.97;;;;;;;7.33;92.90;98728.03;4202344;28;20274;-69
2022/05/16 02:38:54;;;;;;;8.07;4.82;;;;;;;7.36;91.86;98734.00;4195024;28;20040;-69
2022/05/16 02:40:54;;;;;;;10.88;5.43;;;;;;;7.33;92.73;98732.75;4197876;28;20098;-69
2022/05/16 02:42:55;;;;;;;7.35;5.53;;;;;;;7.26;93.84;98736.09;4200031;28;20024;-69
2022/05/16 02:44:55;;;;;;;7.78;5.20;;;;;;;7.27;94.18;98745.94;4187820;28;20071;-69
2022/05/16 02:46:56;;;;;;;8.73;5.18;;;;;;;7.23;94.27;98744.25;4187727;28;20441;-69
2022/05/16 02:48:57;;;;;;;7.60;5.30;;;;;;;7.21;94.86;98741.88;4186797;28;20024;-69
2022/05/16 02:50:57;;;;;;;7.90;5.00;;;;;;;7.17;95.63;98735.44;4187669;28;20154;-69
2022/05/16 02:52:58;;;;;;;10.45;6.70;;;;;;;7.18;95.58;98744.50;4187263;28;20109;-69
2022/05/16 02:55:00;;;;;;;9.13;5.15;;;;;;;7.14;95.82;98732.59;4188147;28;20036;-69
2022/05/16 02:57:01;;;;;;;;;;;;;;;7.11;96.43;98734.06;4188334;28;20068;-69
2022/05/16 02:59:01;;;;;;;8.75;4.78;;;;;;;7.08;96.35;98723.78;4193322;28;20253;-69
2022/05/16 03:01:01;;;;;;;8.98;5.53;;;;;;;7.06;96.75;98717.03;4196097;28;20430;-69
2022/05/16 03:03:02;;;;;;;6.80;4.97;;;;;;;7.03;97.02;98733.09;4188059;28;20040;-69
2022/05/16 03:05:05;;;;;;;11.00;5.40;;;;;;;6.99;96.36;98732.16;4187606;28;20881;-69
2022/05/16 03:07:06;;;;;;;9.50;4.80;;;;;;;6.96;95.25;98719.13;4187140;28;20982;-69
2022/05/16 03:09:06;;;;;;;7.38;5.05;;;;;;;6.99;92.72;98723.13;4186436;28;20484;-69
2022/05/16 03:11:06;;;;;;;9.25;5.38;;;;;;;7.01;93.43;98729.06;4188409;28;20170;-69
2022/05/16 03:13:07;;;;;;;7.95;5.40;;;;;;;7.03;91.06;98727.59;4195254;28;20028;-69
2022/05/16 03:15:08;;;;;;;8.10;5.05;;;;;;;7.02;92.96;98723.22;4202331;28;20028;-69
2022/05/16 03:17:08;;;;;;;10.90;5.25;;;;;;;7.00;92.12;98724.72;4200499;28;20082;-68
2022/05/16 03:19:09;;;;;;;9.52;5.00;;;;;;;6.96;93.62;98726.56;4186308;28;20479;-69
2022/05/16 03:21:10;;;;;;;7.68;5.32;;;;;;;6.92;94.48;98726.44;4187268;28;20093;-69
2022/05/16 03:23:10;;;;;;;7.70;5.22;;;;;;;6.90;95.50;98723.25;4187087;28;20419;-69
2022/05/16 03:25:11;;;;;;;10.70;5.75;;;;;;;6.89;95.29;98723.63;4187714;28;20464;-69
2022/05/16 03:27:11;;;;;;;12.95;5.30;;;;;;;6.86;96.00;98719.59;4195039;28;20032;-69
2022/05/16 03:29:13;;;;;;;12.18;5.90;;;;;;;6.85;97.00;98723.50;4186323;28;20444;-69
2022/05/16 03:31:13;;;;;;;8.30;5.10;;;;;;;6.85;97.48;98725.44;4187409;28;20032;-69
2022/05/16 03:33:15;;;;;;;13.20;6.10;;;;;;;6.86;97.39;98718.78;4186868;28;20039;-69
2022/05/16 03:35:15;;;;;;;9.93;5.90;;;;;;;6.87;96.93;98720.38;4193733;28;20032;-69
2022/05/16 03:37:17;;;;;;;8.90;6.07;;;;;;;6.79;96.95;98713.91;4202032;28;20107;-69
2022/05/16 03:41:36;;;;;;;9.88;5.35;;;;;;;6.71;97.26;98709.34;4197718;28;20688;-69
2022/05/16 03:43:38;;;;;;;12.18;5.40;;;;;;;6.72;97.36;98716.44;4186741;28;20033;-69
2022/05/16 03:45:39;;;;;;;7.75;5.28;;;;;;;6.67;96.72;98709.22;4187160;28;20029;-69
2022/05/16 03:47:39;;;;;;;6.53;4.85;;;;;;;6.63;96.57;98710.25;4186565;28;20049;-69
2022/05/16 03:49:40;;;;;;;8.70;5.10;;;;;;;6.63;95.40;98718.50;4186112;28;20056;-69
2022/05/16 03:51:40;;;;;;;7.53;4.72;;;;;;;6.59;95.00;98723.88;4187074;28;20064;-69
2022/05/16 03:53:47;;;;;;;9.13;4.88;;;;;;;6.64;94.71;98725.59;4186699;28;20498;-69
2022/05/16 03:55:47;;;;;;;7.85;4.53;;;;;;;6.73;91.24;98715.28;4186943;28;20028;-69
2022/05/16 03:57:47;;;;;;;8.40;5.32;;;;;;;6.77;91.93;98721.66;4186915;28;20265;-69
2022/05/16 03:59:48;;;;;;;10.23;5.82;;;;;;;6.81;92.81;98714.34;4186303;28;20097;-69
2022/05/16 04:01:49;;;;;;;10.73;5.38;;;;;;;6.82;93.15;98715.16;4186932;28;20036;-69
2022/05/16 04:03:49;;;;;;;5.07;4.55;;;;;;;6.80;93.72;98714.69;4186925;28;20152;-69
2022/05/16 04:05:50;;;;;;;9.35;5.07;;;;;;;6.78;94.18;98711.47;4186326;28;20037;-69
2022/05/16 04:07:51;;;;;;;9.93;5.75;;;;;;;6.78;95.86;98708.72;4187112;28;20035;-69
2022/05/16 04:09:51;;;;;;;13.75;6.45;;;;;;;6.79;96.40;98705.66;4187485;28;20021;-69
2022/05/16 04:11:52;;;;;;;10.48;5.68;;;;;;;6.82;96.74;98704.94;4194581;28;20024;-69
2022/05/16 04:13:52;;;;;;;9.70;5.72;;;;;;;6.85;96.84;98700.69;4194993;28;20036;-69
2022/05/16 04:15:52;;;;;;;8.77;5.70;;;;;;;6.88;97.44;98708.25;4202700;28;20123;-68
2022/05/16 04:17:53;;;;;;;8.02;5.55;;;;;;;6.92;97.27;98711.91;4194738;28;20032;-68
2022/05/16 04:19:53;;;;;;;10.25;6.60;;;;;;;6.91;96.65;98699.31;4192052;28;20399;-69
2022/05/16 04:21:53;;;;;;;8.30;5.32;;;;;;;6.94;95.66;98695.84;4194842;28;20466;-69
2022/05/16 04:23:54;;;;;;;7.72;6.00;;;;;;;6.96;95.90;98705.38;4188022;28;20292;-68
2022/05/16 04:25:54;;;;;;;9.60;5.60;;;;;;;7.02;95.82;98697.66;4197773;28;20027;-69
2022/05/16 04:27:55;;;;;;;8.32;5.28;;;;;;;7.08;94.79;98693.50;4186710;28;20038;-68
2022/05/16 04:29:55;;;;;;;8.82;5.20;;;;;;;7.22;92.48;98704.13;4185678;28;20025;-68
2022/05/16 04:31:55;;;;;;;8.43;6.07;;;;;;;7.35;90.54;98697.41;4185778;28;20029;-68
2022/05/16 04:33:56;;;;;;;12.48;6.22;;;;;;;7.43;91.50;98706.66;4193271;28;20037;-69
2022/05/16 04:35:57;;;;;;;13.60;7.00;;;;;;;7.47;93.19;98711.13;4193418;28;20043;-68
2022/05/16 04:37:57;;;;;;;14.25;6.60;;;;;;;7.51;94.24;98708.47;4190628;28;20190;-68
2022/05/16 04:39:59;;;;;;;12.05;7.13;;;;;;;7.56;94.89;98697.19;4189857;28;20562;-69
2022/05/16 04:44:19;;;;;;;8.75;5.93;;;;;;;7.83;90.34;98701.03;4202890;28;20558;-69
2022/05/16 04:46:19;;;;;;;11.13;6.60;;;;;;;7.94;92.46;98706.81;4189457;28;20072;-69
2022/05/16 04:48:20;;;;;;;8.88;6.25;;;;;;;8.01;92.99;98712.50;4189235;28;20355;-69
2022/05/16 04:50:24;;;;;;;10.82;6.38;;;;;;;8.09;91.98;98715.09;4188986;28;20106;-69
2022/05/16 04:52:24;;;;;;;11.65;6.40;;;;;;;8.17;91.85;98716.06;4189528;28;20295;-69
2022/05/16 04:54:27;;;;;;;10.48;6.68;;;;;;;8.28;92.31;98719.91;4189817;28;20050;-69
2022/05/16 04:56:27;;;;;;;;;;;;;;;8.40;92.49;98708.81;4131914;28;20094;-69
2022/05/16 04:58:28;;;;;;;21.50;7.30;;;;;;;8.52;90.92;98713.38;4193066;28;20110;-69
2022/05/16 05:00:28;;;;;;;12.27;6.53;;;;;;;8.60;90.24;98711.59;4193551;28;20121;-69
2022/05/16 05:02:29;;;;;;;9.07;6.47;;;;;;;8.66;90.74;98710.16;4189726;28;20195;-69
2022/05/16 05:04:29;;;;;;;12.23;7.28;;;;;;;8.82;90.63;98708.16;4188887;28;20496;-69
2022/05/16 05:06:29;;;;;;;9.73;5.78;;;;;;;8.98;89.20;98710.88;4195134;28;20040;-69
2022/05/16 05:08:30;;;;;;;12.10;6.15;;;;;;;9.15;88.01;98698.63;4203263;28;20078;-69
2022/05/16 05:15:11;;;;;;;13.13;6.25;;;;;;;9.58;87.17;98706.56;4194159;28;20034;-69
2022/05/16 05:17:12;;;;;;;10.10;6.25;;;;;;;9.71;87.76;98707.22;4195953;28;20067;-69
2022/05/16 05:19:12;;;;;;;15.27;6.72;;;;;;;9.84;87.95;98705.06;4195331;28;20064;-69
2022/05/16 05:21:12;;;;;;;11.68;6.90;;;;;;;9.93;88.70;98699.28;4189734;28;20028;-69
2022/05/16 05:23:12;;;;;;;15.35;6.55;;;;;;;9.94;88.18;98698.16;4189884;28;20479;-69
2022/05/16 05:25:17;;;;;;;11.57;6.63;;;;;;;10.03;87.91;98704.22;4188895;28;20032;-69
2022/05/16 05:27:17;;;;;;;9.00;6.40;;;;;;;10.10;88.11;98696.06;4198527;28;20038;-69
2022/05/16 05:29:18;;;;;;;12.80;7.05;;;;;;;10.24;88.15;98696.31;4203360;28;20417;-69
2022/05/16 05:31:20;;;;;;;7.78;6.28;;;;;;;10.31;86.22;98690.09;4198721;28;20516;-69
2022/05/16 05:33:20;;;;;;;10.80;6.25;;;;;;;10.40;85.70;98694.19;4188527;28;20444;-69
2022/05/16 05:35:21;;;;;;;9.13;6.60;;;;;;;10.51;86.65;98688.03;4188732;28;20342;-69
2022/05/16 05:37:21;;;;;;;15.57;7.50;;;;;;;10.55;85.64;98697.97;4198465;28;20028;-69
2022/05/16 05:39:21;;;;;;;8.63;6.50;;;;;;;10.66;84.37;98687.84;4202348;28;20062;-69
2022/05/16 05:41:23;;;;;;;11.88;7.00;;;;;;;10.84;84.92;98695.63;4197981;28;20032;-69
2022/05/16 05:43:23;;;;;;;12.05;7.35;;;;;;;10.93;85.36;98699.72;4188581;28;20081;-69
2022/05/16 05:45:24;;;;;;;17.65;6.85;;;;;;;10.97;85.41;98685.91;4189251;28;20032;-69
2022/05/16 05:47:24;;;;;;;14.57;6.65;;;;;;;10.99;84.90;98689.09;4188679;28;20443;-69
2022/05/16 05:49:24;;;;;;;12.82;6.90;;;;;;;10.97;83.54;98691.44;4187263;28;20033;-69
2022/05/16 05:51:25;;;;;;;8.25;5.75;;;;;;;11.01;82.36;98697.06;4188887;28;20114;-69
2022/05/16 05:53:25;;;;;;;11.80;6.28;;;;;;;11.11;80.46;98690.84;4188510;28;20043;-69
2022/05/16 05:55:26;;;;;;;10.32;6.13;;;;;;;11.27;82.82;98679.56;4196753;28;20211;-69
2022/05/16 05:57:26;;;;;;;16.90;7.22;;;;;;;11.41;84.92;98693.56;4203368;28;20212;-69
2022/05/16 05:59:27;;;;;;;16.10;6.95;;;;;;;11.43;83.94;98677.38;4200365;28;20036;-69
2022/05/16 06:01:27;;;;;;;13.90;7.70;;;;;;;11.39;84.58;98685.63;4188293;28;20032;-69
2022/05/16 06:03:28;;;;;;;14.98;6.90;;;;;;;11.36;83.72;98672.56;4188678;28;20540;-69
2022/05/16 06:05:28;;;;;;;13.85;6.95;;;;;;;11.31;83.76;98678.41;4189119;28;20353;-69
2022/05/16 06:07:28;;;;;;;14.30;6.78;;;;;;;11.32;83.42;98684.75;4188313;28;20028;-69
2022/05/16 06:09:29;;;;;;;17.42;7.47;;;;;;;11.33;83.40;98686.34;4187351;28;20032;-69
2022/05/16 06:11:29;;;;;;;12.80;6.70;;;;;;;11.41;83.90;98686.06;4188333;28;20396;-69
2022/05/16 06:13:30;;;;;;;12.77;7.57;;;;;;;11.52;84.36;98677.88;4201429;28;20035;-69
2022/05/16 06:15:30;;;;;;;10.93;6.55;;;;;;;11.65;84.52;98673.66;4202848;28;20428;-69
2022/05/16 06:17:30;;;;;;;18.13;7.70;;;;;;;11.78;84.19;98672.22;4203449;28;20251;-69
2022/05/16 06:19:31;;;;;;;16.42;7.50;;;;;;;11.89;84.14;98675.09;4191042;28;20483;-69
2022/05/16 06:21:31;;;;;;;15.15;7.38;;;;;;;11.91;82.70;98669.97;4188060;28;20109;-69
2022/05/16 06:23:32;;;;;;;16.08;7.75;;;;;;;12.04;82.24;98673.25;4188514;28;20029;-69
2022/05/16 06:25:32;;;;;;;12.45;7.70;;;;;;;12.16;82.66;98664.63;4188105;28;20392;-69
2022/05/16 06:27:32;;;;;;;9.07;6.72;;;;;;;12.27;81.55;98667.50;4188126;28;20044;-69
2022/05/16 06:29:33;;;;;;;12.80;7.90;;;;;;;12.37;80.94;98662.03;4188768;28;20028;-69
2022/05/16 06:31:33;;;;;;;16.60;8.63;;;;;;;12.50;83.05;98662.53;4195586;28;20021;-69
2022/05/16 06:33:34;;;;;;;16.35;8.52;;;;;;;12.63;82.66;98679.66;4203475;28;20028;-69
2022/05/16 06:35:35;;;;;;;12.52;8.25;;;;;;;12.70;83.44;98682.47;4202466;28;20085;-69
2022/05/16 06:37:36;;;;;;;12.18;8.15;;;;;;;12.76;81.52;98677.38;4188242;28;20404;-69
2022/05/16 06:39:36;;;;;;;13.68;7.32;;;;;;;12.86;81.73;98671.88;4187258;28;20029;-69
2022/05/16 06:41:37;;;;;;;14.57;8.30;;;;;;;12.92;82.56;98669.53;4187842;28;20032;-69
2022/05/16 06:43:37;;;;;;;13.82;7.90;;;;;;;13.02;81.26;98665.19;4190970;28;20382;-69
2022/05/16 06:45:39;;;;;;;13.38;7.65;;;;;;;13.14;81.35;98668.41;4190648;28;20475;-69
2022/05/16 06:47:40;;;;;;;14.48;7.45;;;;;;;13.30;81.69;98667.31;4187917;28;20306;-69
2022/05/16 06:49:40;;;;;;;10.90;7.22;;;;;;;13.46;79.92;98673.31;4186826;28;20532;-69
2022/05/16 06:51:41;;;;;;;13.98;7.45;;;;;;;13.55;81.16;98665.41;4195607;28;20472;-69
2022/05/16 06:53:41;;;;;;;13.95;7.43;;;;;;;13.50;79.04;98663.03;4189794;28;20103;-69
2022/05/16 06:55:42;;;;;;;8.20;6.47;;;;;;;13.54;79.13;98666.59;4187485;28;20037;-69
2022/05/16 06:57:42;;;;;;;9.10;6.63;;;;;;;13.62;77.04;98657.09;4187627;28;20304;-69
2022/05/16 06:59:43;;;;;;;15.43;6.97;;;;;;;13.79;77.96;98666.66;4194315;28;20103;-69
2022/05/16 07:01:43;;;;;;;11.57;7.13;;;;;;;13.95;78.86;98669.84;4201667;28;20036;-69
2022/05/16 07:03:44;;;;;;;11.68;7.03;;;;;;;14.10;78.69;98664.31;4198252;28;20032;-69
2022/05/16 07:05:46;;;;;;;10.48;6.60;;;;;;;14.23;76.88;98671.88;4188090;28;20375;-69
2022/05/16 07:07:46;;;;;;;10.55;6.28;;;;;;;14.39;77.66;98668.66;4187308;28;20086;-69
2022/05/16 07:09:46;;;;;;;12.88;7.63;;;;;;;14.49;78.69;98669.91;4195154;28;20068;-70
2022/05/16 07:11:47;;;;;;;11.90;6.50;;;;;;;14.58;76.73;98665.50;4203859;28;20035;-69
2022/05/16 07:13:47;;;;;;;9.35;6.60;;;;;;;14.66;76.66;98668.28;4201565;28;20031;-70
2022/05/16 07:15:47;;;;;;;18.30;7.00;;;;;;;14.78;78.25;98671.41;4188006;28;20111;-69
2022/05/16 07:17:48;;;;;;;10.80;6.25;;;;;;;14.83;77.81;98673.81;4187214;28;20426;-70
2022/05/16 07:19:49;;;;;;;14.02;7.68;;;;;;;14.88;77.88;98673.38;4186806;28;20521;-70
2022/05/16 07:21:49;;;;;;;12.68;7.03;;;;;;;14.96;77.13;98668.59;4192845;28;20082;-70
2022/05/16 07:23:50;;;;;;;11.57;7.07;;;;;;;15.03;77.43;98676.94;4201982;28;20028;-70
2022/05/16 07:28:08;;;;;;;14.15;7.13;;;;;;;15.23;75.32;98668.91;4186546;28;20035;-70
2022/05/16 07:30:10;;;;;;;9.55;5.85;;;;;;;15.33;75.21;98664.47;4191784;28;20059;-70
2022/05/16 07:32:11;;;;;;;7.95;5.88;;;;;;;15.43;75.71;98664.41;4193654;28;20035;-70
2022/05/16 07:34:12;;;;;;;14.40;6.60;;;;;;;15.56;73.79;98667.56;4187170;28;20422;-70
2022/05/16 07:36:13;;;;;;;11.88;5.90;;;;;;;15.69;76.75;98670.69;4196198;28;20035;-70
2022/05/16 07:38:13;;;;;;;10.98;5.75;;;;;;;15.84;76.63;98660.22;4197740;28;20114;-70
2022/05/16 07:40:14;;;;;;;13.80;6.15;;;;;;;15.99;74.81;98667.31;4200587;28;20359;-70
2022/05/16 07:42:15;;;;;;;10.75;6.32;;;;;;;16.05;73.59;98660.06;4192270;28;20646;-70
2022/05/16 07:44:15;;;;;;;10.50;5.40;;;;;;;16.15;74.05;98658.41;4186369;28;20291;-70
2022/05/16 07:46:15;;;;;;;10.38;5.63;;;;;;;16.33;74.59;98667.44;4187085;28;20369;-70
2022/05/16 07:48:16;;;;;;;10.35;5.40;;;;;;;16.43;73.28;98660.97;4186467;28;20040;-70
2022/05/16 07:50:17;;;;;;;9.73;5.25;;;;;;;16.55;72.65;98657.66;4186752;28;20460;-70
2022/05/16 07:52:17;;;;;;;11.10;5.47;;;;;;;16.68;73.01;98655.13;4187229;28;20087;-70
2022/05/16 07:54:18;;;;;;;9.13;5.32;;;;;;;16.78;72.12;98653.47;4186902;28;20032;-70
2022/05/16 07:56:18;;;;;;;8.43;5.55;;;;;;;16.91;72.29;98651.72;4186789;28;20043;-70
2022/05/16 07:58:20;;;;;;;7.75;5.20;;;;;;;16.95;71.83;98658.06;4198614;28;20032;-70
2022/05/16 08:00:23;;;;;;;10.88;5.63;;;;;;;17.00;73.21;98648.44;4188759;28;20369;-70
2022/05/16 08:02:23;;;;;;;;;;;;;;;17.07;72.48;98639.97;4202481;28;20042;-70
2022/05/16 08:04:23;;;;;;;12.98;5.40;;;;;;;17.20;71.35;98643.00;4201079;28;20379;-70
2022/05/16 08:06:27;;;;;;;7.05;5.20;;;;;;;17.28;70.56;98636.09;4191290;28;20266;-70
2022/05/16 08:10:46;;;;;;;8.60;5.28;;;;;;;17.40;72.63;98644.75;4199556;28;20453;-70
2022/05/16 08:12:47;;;;;;;7.60;5.00;;;;;;;17.45;72.84;98635.06;4185977;28;20125;-70
2022/05/16 08:14:47;;;;;;;6.30;4.60;;;;;;;17.54;72.22;98631.75;4200713;28;20020;-70
2022/05/16 08:16:47;;;;;;;9.75;4.82;;;;;;;17.71;71.68;98627.97;4187541;28;20681;-70
2022/05/16 08:18:48;;;;;;;8.35;5.05;;;;;;;17.90;72.07;98630.06;4191101;28;20347;-70
2022/05/16 08:20:50;;;;;;;10.48;5.25;;;;;;;18.12;70.76;98624.09;4202058;28;20123;-70
2022/05/16 08:22:51;;;;;;;;;;;;;;;18.29;69.11;98627.81;4192985;28;20080;-71
2022/05/16 08:24:51;;;;;;;10.15;5.03;;;;;;;18.42;66.89;98626.00;4201626;28;19985;-70
2022/05/16 08:26:52;;;;;;;10.85;5.38;;;;;;;18.55;68.30;98626.19;4186746;28;20131;-70
2022/05/16 08:28:52;;;;;;;11.25;4.80;;;;;;;18.62;66.11;98623.22;4186070;28;20035;-70
2022/05/16 08:30:53;;;;;;;10.35;5.40;;;;;;;18.70;66.22;98621.91;4192462;28;20039;-71
2022/05/16 08:32:57;;;;;;;11.73;5.45;;;;;;;18.77;67.33;98624.59;4201709;28;20028;-71
2022/05/16 08:35:00;;;;;;;11.50;5.50;;;;;;;18.87;65.93;98622.81;4200663;28;20391;-70
2022/05/16 08:41:57;;;;;;;11.55;5.13;;;;;;;19.37;67.32;98616.97;4200625;28;20846;-71
2022/05/16 08:44:07;;;;;;;8.32;5.10;;;;;;;19.47;66.73;98620.75;4196098;28;20146;-70
2022/05/16 08:46:24;;;;;;;8.68;4.38;;;;;;;19.58;67.59;98622.13;4186518;28;20075;-71
2022/05/16 08:48:33;;;;;;;9.50;4.82;;;;;;;19.72;62.76;98611.81;4185698;28;20763;-71
2022/05/16 08:50:48;;;;;;;8.60;4.30;;;;;;;19.74;63.78;98612.16;4186256;28;20480;-71
2022/05/16 08:53:13;;;;;;;8.35;5.20;;;;;;;19.82;64.37;98608.75;4185362;28;20388;-71
2022/05/16 08:55:24;;;;;;;7.53;4.30;;;;;;;19.91;63.12;98610.94;4185410;28;20682;-71
2022/05/16 08:57:40;;;;;;;8.05;4.38;;;;;;;20.14;63.21;98610.78;4193993;28;20421;-71
2022/05/16 08:59:47;;;;;;;7.57;5.20;;;;;;;20.31;62.13;98610.78;4195152;28;20090;-71
2022/05/16 09:02:15;;;;;;;7.15;4.38;;;;;;;20.49;61.37;98613.94;4187390;28;20349;-71
2022/05/16 09:04:30;;;;;;;5.78;4.20;;;;;;;20.63;61.06;98605.13;4199641;28;20235;-71
2022/05/16 09:06:49;;;;;;;6.80;4.28;;;;;;;20.78;61.33;98618.81;4186068;28;20128;-71
2022/05/16 09:08:55;;;;;;;10.70;5.20;;;;;;;20.97;61.64;98617.88;4185599;28;20478;-71
2022/05/16 09:11:06;;;;;;;11.45;4.30;;;;;;;21.12;59.45;98624.66;4185636;28;20032;-71
2022/05/16 09:13:36;;;;;;;9.60;4.20;;;;;;;21.06;59.81;98620.81;4186195;28;20444;-71
2022/05/16 09:15:57;;;;;;;8.02;3.95;;;;;;;21.17;61.46;98621.28;4192769;28;20038;-71
2022/05/16 09:18:06;;;;;;;6.65;4.40;;;;;;;21.23;59.59;98618.72;4186018;28;20035;-71
2022/05/16 09:20:31;;;;;;;8.57;4.80;;;;;;;21.29;59.64;98614.94;4188938;28;20036;-71
2022/05/16 09:22:42;;;;;;;12.00;5.00;;;;;;;21.45;60.92;98614.06;4200484;28;20031;-71
2022/05/16 09:24:55;;;;;;;8.48;4.47;;;;;;;21.39;60.83;98603.81;4202160;28;20032;-71
2022/05/16 09:27:00;;;;;;;7.28;5.00;;;;;;;21.39;60.80;98615.06;4189018;28;20074;-71
2022/05/16 09:29:20;;;;;;;6.03;4.55;;;;;;;21.43;61.23;98610.94;4188184;28;20059;-71
2022/05/16 09:31:43;;;;;;;6.63;4.35;;;;;;;21.46;61.39;98607.22;4189191;28;20456;-71
2022/05/16 09:33:48;;;;;;;10.63;4.40;;;;;;;21.53;60.76;98612.63;4189464;28;20834;-71
2022/05/16 09:35:58;;;;;;;8.73;4.78;;;;;;;21.53;60.20;98614.66;4198561;28;20024;-71
2022/05/16 09:37:59;;;;;;;12.52;5.20;;;;;;;21.50;62.42;98623.97;4203775;28;20123;-71
2022/05/16 09:39:59;;;;;;;10.57;4.95;;;;;;;21.45;62.48;98619.72;4201974;28;20060;-71
2022/05/16 09:42:24;;;;;;;15.85;5.80;;;;;;;21.39;62.17;98620.69;4204788;28;20032;-71
2022/05/16 09:44:34;;;;;;;8.20;4.60;;;;;;;21.39;62.42;98623.50;4202183;28;20035;-71
2022/05/16 09:46:43;;;;;;;9.07;5.18;;;;;;;21.28;60.52;98627.44;4188718;28;20388;-71
2022/05/16 09:48:43;;;;;;;9.05;4.97;;;;;;;21.23;61.48;98624.34;4198008;28;20043;-71
2022/05/16 09:50:57;;;;;;;12.43;4.65;;;;;;;21.16;62.08;98639.41;4187943;28;20476;-71
2022/05/16 09:53:07;;;;;;;10.38;4.85;;;;;;;21.13;61.75;98645.94;4188723;28;20432;-71
2022/05/16 09:55:11;;;;;;;10.48;4.93;;;;;;;21.11;60.36;98650.44;4188572;28;20028;-71
2022/05/16 09:57:12;;;;;;;10.70;4.50;;;;;;;21.10;60.72;98663.72;4194316;28;20034;-72
2022/05/16 09:59:14;;;;;;;10.00;4.60;;;;;;;21.08;62.76;98660.53;4196582;28;20290;-71
2022/05/16 10:01:39;;;;;;;9.50;4.53;;;;;;;21.10;63.05;98672.16;4203369;28;20828;-71
2022/05/16 10:03:42;;;;;;;7.63;4.88;;;;;;;21.04;62.08;98677.53;4187982;28;20024;-71